Drachten Airfield

EHDR · Friesland, Niederlande

METAR-Geschichte EHDR · Drachten Airfield

Unten siehst du die METARs der letzten paar Tage. Wähle ein Jahr, um ältere METARs ab dem Jahr 2007 zu durchsuchen.

22. April 2024

Uhrzeit Code Wetter Temp. Sichtweite Wolkendecke Wind METAR/SPECI
13:25
V
8 °C 10 km+ 6.400 ft 030° 030° 14 kt METAR EHLW 221125Z AUTO 03014KT 350V070 9999 FEW052 SCT059 BKN064 08/M00 Q1026 BLU NOSIG
12:55
V
9 °C 10 km+ 14.000 ft 040° 040° 12 kt METAR EHLW 221055Z AUTO 04012KT 350V090 9999 FEW050 OVC140 09/M03 Q1026 BLU NOSIG
12:25
V
9 °C 10 km+ 29.000 ft 050° 050° 13 kt METAR EHLW 221025Z AUTO 05013KT 340V130 9999 SCT050 SCT057 BKN290 09/M01 Q1026 BLU NOSIG
11:55
V
9 °C 10 km+ 4.900 ft 060° 060° 12 kt METAR EHLW 220955Z AUTO 06012KT 330V140 9999 FEW044 BKN049 BKN054 09/M01 Q1026 BLU NOSIG
11:25
V
8 °C 10 km+ 4.600 ft 050° 050° 13 kt METAR EHLW 220925Z AUTO 05013KT 360V120 9999 SCT040 BKN046 BKN057 08/01 Q1026 BLU NOSIG
10:55
V
8 °C 10 km+ 5.600 ft 060° 060° 13 kt METAR EHLW 220855Z AUTO 06013KT 350V130 9999 FEW042 BKN056 OVC064 08/M00 Q1026 BLU NOSIG
10:25
V
8 °C 10 km+ 5.000 ft 050° 050° 13 kt METAR EHLW 220825Z AUTO 05013KT 350V100 9999 FEW037 SCT044 BKN050 08/01 Q1026 BLU NOSIG
09:55
V
7 °C 10 km+ 11.000 ft 050° 050° 8 kt METAR EHLW 220755Z AUTO 05008KT 360V090 9999 FEW049 OVC110 07/03 Q1026 BLU NOSIG
09:25
V
7 °C 10 km+ 6.000 ft 060° 060° 5 kt METAR EHLW 220725Z AUTO 06005KT 360V090 9999 FEW054 BKN060 BKN069 07/03 Q1026 BLU NOSIG
08:55
V
6 °C 10 km+ 5.500 ft 060° 060° 6 kt METAR EHLW 220655Z AUTO 06006KT 350V110 9999 BKN055 OVC060 06/03 Q1026 BLU NOSIG
08:25
V
6 °C 10 km+ 13.000 ft 050° 050° 4 kt METAR EHLW 220625Z AUTO 05004KT 010V090 9999 FEW051 OVC130 06/03 Q1026 BLU NOSIG
08:06
V
6 °C 10 km+ 13.000 ft 060° 060° 6 kt METAR EHLW 220606Z AUTO 06006KT 010V110 9999 OVC130 06/03 Q1026 BLU NOSIG
07:55
V
5 °C 10 km+ 14.000 ft 050° 050° 5 kt METAR EHLW 220555Z AUTO 05005KT 350V080 9999 FEW072 OVC140 05/03 Q1026 BLU
07:25
V
4 °C 10 km+ 6.300 ft 010° 010° 5 kt METAR EHLW 220525Z AUTO 01005KT 9999 FEW051 SCT058 OVC063 04/02 Q1026 BLU
06:55
V
3 °C 10 km+ 5.000 ft 340° 340° 5 kt METAR EHLW 220455Z AUTO 34005KT 9999 OVC050 03/02 Q1026 BLU
06:25
V
2 °C 10 km+ 3.600 ft 310° 310° 3 kt METAR EHLW 220425Z AUTO 31003KT 230V310 9999 -UP BKN036 OVC041 02/02 Q1026 BLU
05:55
V
3 °C 10 km+ 17.000 ft 270° 270° 4 kt METAR EHLW 220355Z AUTO 27004KT 9999 BKN170 OVC230 03/01 Q1026 BLU
05:34
V
3 °C 10 km+ - 270° 270° 4 kt METAR EHLW 220334Z AUTO 27004KT 9999 FEW015CB SCT065 03/01 Q1026 BLU
05:25
V
2 °C 10 km+ 3.700 ft 280° 280° 2 kt METAR EHLW 220325Z AUTO 28002KT 9999 SCT033 BKN037 BKN042 02/01 Q1026 BLU
04:55
V
2 °C 10 km+ 6.800 ft 280° 280° 3 kt METAR EHLW 220255Z AUTO 28003KT 250V010 9999 FEW036 BKN068 BKN074 02/01 Q1026 BLU
04:25
V
3 °C 10 km+ 19.000 ft 270° 270° 3 kt METAR EHLW 220225Z AUTO 27003KT 9999 OVC190 03/01 Q1026 BLU
03:55
V
4 °C 10 km+ 7.400 ft 230° 230° 2 kt METAR EHLW 220155Z AUTO 23002KT 9999 BKN074 OVC170 04/02 Q1026 BLU
03:39
V
5 °C 10 km+ 5.500 ft 220° 220° 3 kt METAR EHLW 220139Z AUTO 22003KT 170V270 9999 FEW031 SCT048 BKN055 05/02 Q1026 BLU
03:19
V
5 °C 10 km+ 4.700 ft 140° 140° 5 kt METAR EHLW 220119Z AUTO 14005KT 120V200 9999 -DZRA FEW015CB SCT035 BKN047 05/02 Q1027 BLU
03:25
M
5 °C 10 km+ 3.000 ft 160° 160° 4 kt METAR EHLW 220125Z AUTO 16004KT 140V200 9999 -DZ FEW015CB BKN030 BKN037 BKN047 05/02 Q1027 BLU
02:55
V
5 °C 10 km+ 4.000 ft 100° 100° 6 kt METAR EHLW 220055Z AUTO 10006KT 040V150 9999 FEW015CB BKN040 OVC045 05/01 Q1027 BLU
02:35
M
5 °C 10 km+ 2.900 ft 090° 090° 8 kt METAR EHLW 220035Z AUTO 09008KT 010V180 9999 FEW015CB BKN029 BKN033 05/02 Q1027 BLU
02:29
V
4 °C 10 km+ 3.200 ft 030° 030° 5 kt METAR EHLW 220029Z AUTO 03005KT 9999 FEW015CB SCT021 BKN032 04/02 Q1027 WHT
02:25
V
3 °C 10 km+ 5.900 ft 350° 350° 4 kt METAR EHLW 220025Z AUTO 35004KT 9999 FEW015CB SCT032 BKN059 03/01 Q1027 BLU
01:55
V
3 °C 10 km+ 7.200 ft 320° 320° 3 kt METAR EHLW 212355Z AUTO 32003KT 280V360 9999 FEW015CB OVC072 03/01 Q1027 BLU
01:25
V
4 °C 10 km+ - 330° 330° 1 kt METAR EHLW 212325Z AUTO 33001KT 9999 FEW230 04/01 Q1027 BLU
00:55
V
4 °C 10 km+ 21.000 ft 350° 350° 4 kt METAR EHLW 212255Z AUTO 35004KT 9999 BKN210 04/01 Q1028 BLU
00:25
V
4 °C 10 km+ 6.700 ft 350° 350° 3 kt METAR EHLW 212225Z AUTO 35003KT 9999 OVC067 04/01 Q1028 BLU

21. April 2024

Uhrzeit Code Wetter Temp. Sichtweite Wolkendecke Wind METAR/SPECI
23:55
V
2 °C 10 km+ 21.000 ft 360° 360° 4 kt METAR EHLW 212155Z AUTO 36004KT 9999 FEW034 OVC210 02/01 Q1028 BLU
23:25
V
2 °C 10 km+ 21.000 ft 010° 010° 5 kt METAR EHLW 212125Z AUTO 01005KT 9999 OVC210 02/00 Q1028 BLU
22:55
V
3 °C 10 km+ 21.000 ft 010° 010° 5 kt METAR EHLW 212055Z AUTO 01005KT 9999 OVC210 03/00 Q1028 BLU
22:25
V
2 °C 10 km+ 20.000 ft 020° 020° 5 kt METAR EHLW 212025Z AUTO 02005KT 9999 OVC200 02/M00 Q1028 BLU
21:55
V
3 °C 10 km+ - 020° 020° 6 kt METAR EHLW 211955Z AUTO 02006KT 9999 NCD 03/00 Q1028 BLU
21:25
V
4 °C 10 km+ - 020° 020° 6 kt METAR EHLW 211925Z AUTO 02006KT 9999 NCD 04/01 Q1028 BLU
20:55
V
5 °C 10 km+ - 020° 020° 7 kt METAR EHLW 211855Z AUTO 02007KT 9999 FEW041 05/01 Q1028 BLU
20:25
V
7 °C 10 km+ - 030° 030° 8 kt METAR EHLW 211825Z AUTO 03008KT 350V050 9999 SCT035 SCT041 07/02 Q1028 BLU
19:55
V
8 °C 10 km+ - 030° 030° 10 kt METAR EHLW 211755Z AUTO 03010KT 360V070 9999 FEW034 08/01 Q1027 BLU
19:25
V
8 °C 10 km+ - 030° 030° 11 kt METAR EHLW 211725Z AUTO 03011KT 350V060 9999 NCD 08/02 Q1027 BLU
18:55
V
9 °C 10 km+ 5.900 ft 030° 030° 13 kt METAR EHLW 211655Z AUTO 03013KT 340V050 9999 FEW027 SCT048 BKN059 09/03 Q1027 BLU
18:25
V
9 °C 10 km+ - 030° 030° 15 kt METAR EHLW 211625Z AUTO 03015KT 360V060 9999 SCT030 09/03 Q1027 BLU
17:55
V
9 °C 10 km+ - 020° 020° 15 kt METAR EHLW 211555Z AUTO 02015KT 350V070 9999 FEW028 09/03 Q1027 BLU
17:25
V
9 °C 10 km+ - 040° 040° 15 kt METAR EHLW 211525Z AUTO 04015KT 350V090 9999 FEW028 09/02 Q1027 BLU
16:55
V
10 °C 10 km+ - 030° 030° 14 kt METAR EHLW 211455Z AUTO 03014KT 350V080 9999 SCT029 10/03 Q1027 BLU
16:25
V
10 °C 10 km+ 3.200 ft 030° 030° 14 kt METAR EHLW 211425Z AUTO 03014KT 360V090 9999 SCT028 BKN032 BKN038 10/03 Q1027 BLU
15:55
V
10 °C 10 km+ - 030° 030° 14 kt METAR EHLW 211355Z AUTO 03014KT 350V070 9999 SCT026 10/04 Q1027 BLU
15:38
V
10 °C 10 km+ - 040° 040° 13 kt METAR EHLW 211338Z AUTO 04013KT 350V080 9999 SCT024 SCT074 10/04 Q1027 WHT
15:35
V
10 °C 10 km+ - 050° 050° 13 kt METAR EHLW 211335Z AUTO 05013KT 360V080 9999 FEW024 SCT064 10/05 Q1027 BLU
15:31
M
10 °C 10 km+ 2.700 ft 040° 040° 12 kt METAR EHLW 211331Z AUTO 04012KT 360V100 9999 SCT024 BKN027 BKN032 10/04 Q1027 WHT
15:25
M
10 °C 10 km+ 2.500 ft 020° 020° 12 kt METAR EHLW 211325Z AUTO 02012KT 350V100 9999 FEW022 BKN025 BKN029 10/04 Q1027 BLU
14:55
V
9 °C 10 km+ 4.400 ft 030° 030° 14 kt METAR EHLW 211255Z AUTO 03014KT 360V070 9999 FEW025 SCT032 BKN044 09/04 Q1027 BLU
14:25
V
8 °C 10 km+ 5.200 ft 030° 030° 9 kt METAR EHLW 211225Z AUTO 03009KT 350V060 9999 FEW042 SCT046 BKN052 08/03 Q1027 REDZ BLU
13:55
V
8 °C 10 km+ 3.900 ft 050° 050° 15 kt METAR EHLW 211155Z AUTO 05015KT 330V130 9999 -RA FEW020 SCT032 BKN039 08/04 Q1027 BLU
13:41
M
8 °C 10 km+ 2.700 ft 030° 030° 12 kt METAR EHLW 211141Z AUTO 03012KT 350V100 9999 SCT023 BKN027 OVC033 08/04 Q1026 WHT
13:34
M
9 °C 10 km+ 2.800 ft 030° 030° 12 kt METAR EHLW 211134Z AUTO 03012KT 350V100 9999 SCT025 BKN028 BKN034 09/04 Q1026 BLU
13:25
M
8 °C 10 km+ 2.500 ft 030° 030° 11 kt METAR EHLW 211125Z AUTO 03011KT 350V070 9999 SCT022 BKN025 BKN028 08/03 Q1026 WHT
13:05
V
8 °C 10 km+ 3.200 ft 030° 030° 11 kt METAR EHLW 211105Z AUTO 03011KT 350V070 9999 FEW023 SCT028 BKN032 08/04 Q1026 BLU
12:56
V
9 °C 10 km+ 3.600 ft 050° 050° 10 kt METAR EHLW 211056Z AUTO 05010KT 330V110 9999 SCT023 BKN036 BKN043 09/04 Q1026 WHT
12:42
V
9 °C 10 km+ - 050° 050° 7 kt METAR EHLW 211042Z AUTO 05007KT 360V110 9999 FEW043 SCT057 09/05 Q1026 BLU
12:29
V
7 °C 10 km+ 4.000 ft 060° 060° 8 kt METAR EHLW 211029Z AUTO 06008KT 9999 -RA FEW014 SCT031 OVC040 07/04 Q1026 BLU
12:25
M
7 °C 6 km 2.700 ft 070° 070° 10 kt METAR EHLW 211025Z AUTO 07010KT 6000 -RADZ FEW014 SCT022 BKN027 07/04 Q1026 WHT
12:14
M
6 °C 5 km 2.500 ft 060° 060° 13 kt METAR EHLW 211014Z AUTO 06013KT 340V150 5000 HZ SCT017 SCT021 BKN025 06/03 Q1026 WHT
12:12
V
7 °C 10 km+ 3.300 ft 030° 030° 11 kt METAR EHLW 211012Z AUTO 03011KT 350V120 9999 FEW020 SCT024 OVC033 07/03 Q1026 WHT
11:55
V
6 °C 10 km+ 4.200 ft 030° 030° 14 kt METAR EHLW 210955Z AUTO 03014KT 350V060 9999 FEW019 SCT037 BKN042 06/03 Q1026 BLU
11:39
M
9 °C 10 km+ 2.500 ft 020° 020° 11 kt METAR EHLW 210939Z AUTO 02011KT 330V070 9999 FEW021 BKN025 BKN029 09/04 Q1026 BLU
11:25
M
9 °C 10 km+ 2.100 ft 010° 010° 9 kt METAR EHLW 210925Z AUTO 01009KT 340V080 9999 BKN021 BKN027 BKN035 09/04 Q1026 WHT
10:55
M
9 °C 10 km+ 2.600 ft 070° 070° 10 kt METAR EHLW 210855Z AUTO 07010KT 9999 SCT022 BKN026 BKN030 09/04 Q1026 WHT
10:30
V
8 °C 10 km+ - 060° 060° 12 kt METAR EHLW 210830Z AUTO 06012KT 9999 FEW022 SCT025 08/03 Q1026 BLU
10:25
M
8 °C 10 km+ 2.400 ft 050° 050° 11 kt METAR EHLW 210825Z AUTO 05011KT 360V120 9999 FEW016 SCT019 BKN024 08/04 Q1026 WHT
09:55
M
7 °C 10 km+ 2.000 ft 060° 060° 11 kt METAR EHLW 210755Z AUTO 06011KT 340V120 9999 SCT016 BKN020 07/04 Q1025 WHT
09:37
V
7 °C 10 km+ - 060° 060° 11 kt METAR EHLW 210737Z AUTO 06011KT 340V140 9999 SCT016 07/03 Q1025 WHT
09:25
V
7 °C 10 km+ - 060° 060° 10 kt METAR EHLW 210725Z AUTO 06010KT 350V140 9999 FEW014 07/04 Q1025 BLU
08:55
V
6 °C 10 km+ - 060° 060° 10 kt METAR EHLW 210655Z AUTO 06010KT 350V120 9999 NCD 06/04 Q1024 BLU
08:25
V
6 °C 10 km+ - 060° 060° 7 kt METAR EHLW 210625Z AUTO 06007KT 350V140 9999 NCD 06/03 Q1024 BLU
07:55
M
4 °C 10 km+ 3.000 ft 050° 050° 5 kt METAR EHLW 210555Z AUTO 05005KT 360V100 9999 -DZ FEW021 BKN030 OVC037 04/02 Q1024 BLU
07:25
V
3 °C 10 km+ - 050° 050° 4 kt METAR EHLW 210525Z AUTO 05004KT 010V080 9999 SCT029 03/01 Q1023 BLU
06:55
V
2 °C 10 km+ - 050° 050° 6 kt METAR EHLW 210455Z AUTO 05006KT 010V090 9999 FEW028 02/01 Q1023 BLU
06:25
V
3 °C 10 km+ - 060° 060° 8 kt METAR EHLW 210425Z AUTO 06008KT 360V110 9999 NCD 03/01 Q1022 BLU
05:55
V
3 °C 10 km+ - 040° 040° 8 kt METAR EHLW 210355Z AUTO 04008KT 360V080 9999 NCD 03/01 Q1022 BLU
05:25
V
3 °C 10 km+ - 050° 050° 10 kt METAR EHLW 210325Z AUTO 05010KT 360V110 9999 FEW025 SCT028 03/01 Q1021 BLU
04:55
V
4 °C 10 km+ 5.600 ft 040° 040° 11 kt METAR EHLW 210255Z AUTO 04011KT 010V080 9999 FEW037 SCT051 BKN056 04/01 Q1021 BLU
04:39
V
4 °C 10 km+ 4.100 ft 060° 060° 16 - 26 kt METAR EHLW 210239Z AUTO 06016G26KT 350V120 9999 FEW005 SCT031 BKN041 04/01 Q1020 BLU
04:30
M
4 °C 10 km+ 2.600 ft 030° 030° 17 - 28 kt METAR EHLW 210230Z AUTO 03017G28KT 350V110 9999 FEW017 SCT021 BKN026 04/01 Q1020 WHT
04:25
M
4 °C 10 km+ 3.000 ft 020° 020° 16 kt METAR EHLW 210225Z AUTO 02016KT 340V050 9999 SCT027 BKN030 BKN035 04/02 Q1020 BLU
03:55
V
4 °C 10 km+ - 020° 020° 14 kt METAR EHLW 210155Z AUTO 02014KT 350V060 9999 FEW023 04/01 Q1020 BLU
03:38
V
4 °C 10 km+ - 020° 020° 15 kt METAR EHLW 210138Z AUTO 02015KT 9999 FEW019 SCT023 04/02 Q1020 WHT
03:29
V
4 °C 10 km+ - 030° 030° 17 kt METAR EHLW 210129Z AUTO 03017KT 360V060 9999 FEW015CB 04/02 Q1020 BLU
03:25
M
5 °C 10 km+ 1.600 ft 030° 030° 18 kt METAR EHLW 210125Z AUTO 03018KT 360V060 9999 FEW015CB BKN016 BKN020 05/02 Q1020 WHT
02:55
M
4 °C 10 km+ 2.900 ft 330° 330° 15 kt METAR EHLW 210055Z AUTO 33015KT 290V010 9999 SCT015CB SCT022 BKN029 04/02 Q1019 RERA WHT
02:44
M
5 °C 10 km+ 2.000 ft 340° 340° 18 kt METAR EHLW 210044Z AUTO 34018KT 300V020 9999 -SHRA FEW011 SCT015CB BKN020 BKN024 05/03 Q1019 WHT
02:25
V
5 °C 10 km+ 6.000 ft 320° 320° 16 kt METAR EHLW 210025Z AUTO 32016KT 290V360 9999 FEW015CB BKN060 BKN068 05/03 Q1020 REDZ BLU
02:03
M
5 °C 10 km+ 2.900 ft 330° 330° 20 kt METAR EHLW 210003Z AUTO 33020KT 300V010 9999 DZ FEW015CB SCT024 BKN029 05/02 Q1020 WHT
01:55
V
6 °C 10 km+ 3.600 ft 320° 320° 18 kt METAR EHLW 202355Z AUTO 32018KT 290V020 9999 -UP FEW019CB SCT030 BKN036 06/01 Q1020 BLU
01:36
V
5 °C 10 km+ 5.700 ft 330° 330° 16 kt METAR EHLW 202336Z AUTO 33016KT 290V010 9999 FEW018CB SCT041 BKN057 05/01 Q1020 BLU
01:25
V
6 °C 10 km+ 3.100 ft 330° 330° 19 kt METAR EHLW 202325Z AUTO 33019KT 290V010 9999 FEW028 BKN031 BKN043 06/00 Q1021 BLU
00:55
V
5 °C 10 km+ - 330° 330° 17 kt METAR EHLW 202255Z AUTO 33017KT 290V010 9999 FEW034 SCT067 05/00 Q1021 BLU
00:25
V
5 °C 10 km+ 5.500 ft 330° 330° 15 kt METAR EHLW 202225Z AUTO 33015KT 290V020 9999 -RA FEW017CB BKN055 BKN067 05/01 Q1021 BLU

20. April 2024

Uhrzeit Code Wetter Temp. Sichtweite Wolkendecke Wind METAR/SPECI
23:55
V
4 °C 10 km+ 4.600 ft 330° 330° 21 - 32 kt METAR EHLW 202155Z AUTO 33021G32KT 290V010 9999 -RA FEW006 FEW015CB SCT031 BKN046 04/00 Q1022 BLU
23:38
V
4 °C 10 km+ - 320° 320° 12 kt METAR EHLW 202138Z AUTO 32012KT 280V360 9999 FEW015CB 04/00 Q1022 BLU
23:25
V
4 °C 10 km+ 5.400 ft 330° 330° 17 kt METAR EHLW 202125Z AUTO 33017KT 290V020 9999 -RA FEW015CB BKN054 BKN062 04/01 Q1022 RERAUPRA BLU
23:15
V
4 °C 10 km+ 4.900 ft 340° 340° 15 kt METAR EHLW 202115Z AUTO 34015KT 300V030 9999 SCT019CB SCT023 BKN049 04/M01 Q1022 WHT
23:01
V
5 °C 10 km+ 3.500 ft 350° 350° 8 kt METAR EHLW 202101Z AUTO 35008KT 310V020 9999 UP FEW015CB SCT031 BKN035 05/02 Q1022 BLU
22:55
V
5 °C 10 km+ 3.600 ft 340° 340° 10 kt METAR EHLW 202055Z AUTO 34010KT 300V010 9999 FEW016CB SCT032 BKN036 BKN046 05/01 Q1022 BLU
22:44
V
5 °C 10 km+ 5.400 ft 340° 340° 15 kt METAR EHLW 202044Z AUTO 34015KT 300V010 9999 DZRA FEW018CB SCT049 OVC054 05/00 Q1022 BLU
22:25
V
5 °C 10 km+ 5.200 ft 360° 360° 16 kt METAR EHLW 202025Z AUTO 36016KT 9999 BKN052 OVC057 05/02 Q1022 REDZ BLU
22:13
V
5 °C 10 km+ 3.500 ft 330° 330° 17 kt METAR EHLW 202013Z AUTO 33017KT 290V010 9999 FEW023 SCT028 BKN035 05/01 Q1022 BLU
21:56
V
5 °C 10 km+ 3.600 ft 330° 330° 14 kt METAR EHLW 201956Z AUTO 33014KT 300V010 9999 -RA FEW024 SCT029 BKN036 05/02 Q1022 BLU
21:55
V
6 °C 10 km+ 4.400 ft 340° 340° 14 kt METAR EHLW 201955Z AUTO 34014KT 310V010 9999 -RA FEW016CB BKN044 BKN048 06/01 Q1022 RERA BLU
21:41
V
5 °C 10 km+ 4.900 ft 350° 350° 17 kt METAR EHLW 201941Z AUTO 35017KT 320V020 9999 FEW021 SCT042 OVC049 05/02 Q1022 BLU
21:28
V
5 °C 10 km+ 3.500 ft 340° 340° 15 kt METAR EHLW 201928Z AUTO 34015KT 300V360 9999 RA FEW022 BKN035 OVC041 05/02 Q1022 BLU
21:25
V
5 °C 10 km+ 4.100 ft 340° 340° 16 kt METAR EHLW 201925Z AUTO 34016KT 290V010 9999 -RA FEW026 SCT031 BKN041 05/01 Q1022 RERA REDZ BLU
21:10
V
5 °C 10 km+ 4.900 ft 360° 360° 17 kt METAR EHLW 201910Z AUTO 36017KT 310V020 9999 FEW031 SCT038 OVC049 05/02 Q1023 BLU
21:04
V
5 °C 10 km+ 3.100 ft 360° 360° 19 kt METAR EHLW 201904Z AUTO 36019KT 9999 SCT024 BKN031 BKN037 05/02 Q1022 WHT
20:55
M
5 °C 10 km+ 2.600 ft 330° 330° 14 kt METAR EHLW 201855Z AUTO 33014KT 270V010 9999 -DZRA SCT022 BKN026 BKN030 05/03 Q1022 REDZ WHT
20:36
V
5 °C 10 km+ 3.200 ft 330° 330° 19 kt METAR EHLW 201836Z AUTO 33019KT 280V360 9999 DZ FEW017 SCT026 BKN032 05/02 Q1022 BLU
20:28
V
6 °C 10 km+ 4.500 ft 350° 350° 18 - 28 kt METAR EHLW 201828Z AUTO 35018G28KT 300V010 9999 -DZ FEW017 SCT023 BKN045 06/02 Q1022 WHT
20:25
V
6 °C 10 km+ 4.400 ft 350° 350° 16 kt METAR EHLW 201825Z AUTO 35016KT 310V020 9999 FEW021 SCT038 BKN044 06/02 Q1022 BLU
19:55
V
6 °C 10 km+ 4.700 ft 340° 340° 19 kt METAR EHLW 201755Z AUTO 34019KT 300V020 9999 FEW024 SCT033 BKN047 06/02 Q1022 BLU
19:25
V
7 °C 10 km+ 3.200 ft 350° 350° 17 kt METAR EHLW 201725Z AUTO 35017KT 320V020 9999 SCT029 BKN032 OVC045 07/02 Q1022 BLU
18:55
V
7 °C 10 km+ 3.300 ft 350° 350° 20 kt METAR EHLW 201655Z AUTO 35020KT 320V020 9999 FEW027 BKN033 OVC038 07/02 Q1022 BLU
18:29
M
7 °C 10 km+ 2.700 ft 360° 360° 21 kt METAR EHLW 201629Z AUTO 36021KT 320V020 9999 FEW023 BKN027 OVC031 07/03 Q1022 BLU
18:25
M
7 °C 10 km+ 2.500 ft 360° 360° 20 kt METAR EHLW 201625Z AUTO 36020KT 320V020 9999 SCT022 BKN025 BKN029 07/03 Q1022 WHT
18:01
M
7 °C 10 km+ 2.100 ft 350° 350° 23 kt METAR EHLW 201601Z AUTO 35023KT 300V020 9999 -RA FEW014 SCT016 BKN021 07/05 Q1022 WHT
17:55
M
7 °C 10 km+ 1.900 ft 350° 350° 25 kt METAR EHLW 201555Z AUTO 35025KT 320V030 9999 SCT014 BKN019 BKN023 07/05 Q1021 GRN
17:25
V
8 °C 10 km+ 3.600 ft 350° 350° 21 kt METAR EHLW 201525Z AUTO 35021KT 310V010 9999 SCT015 SCT021 OVC036 08/05 Q1021 WHT
17:06
V
9 °C 10 km+ 3.500 ft 350° 350° 20 kt METAR EHLW 201506Z AUTO 35020KT 310V010 9999 FEW013 SCT019 BKN035 09/05 Q1021 WHT
16:55
M
10 °C 10 km+ 3.000 ft 350° 350° 20 kt METAR EHLW 201455Z AUTO 35020KT 310V010 9999 SCT026 BKN030 BKN035 10/04 Q1021 BLU
16:29
M
10 °C 10 km+ 2.200 ft 350° 350° 20 kt METAR EHLW 201429Z AUTO 35020KT 310V020 9999 BKN022 BKN031 BKN040 10/05 Q1021 WHT
16:25
V
11 °C 10 km+ 3.100 ft 350° 350° 20 kt METAR EHLW 201425Z AUTO 35020KT 300V020 9999 FEW023 SCT026 BKN031 11/05 Q1021 BLU
16:09
V
10 °C 10 km+ - 350° 350° 17 kt METAR EHLW 201409Z AUTO 35017KT 320V020 9999 FEW022 SCT025 10/05 Q1021 BLU
15:55
M
10 °C 10 km+ 2.400 ft 350° 350° 19 kt METAR EHLW 201355Z AUTO 35019KT 310V020 9999 SCT021 BKN024 BKN028 10/05 Q1021 WHT
15:25
M
9 °C 10 km+ 2.200 ft 340° 340° 16 kt METAR EHLW 201325Z AUTO 34016KT 300V010 9999 -RA BKN022 BKN031 OVC041 09/05 Q1020 WHT
15:11
V
9 °C 10 km+ 3.300 ft 350° 350° 16 kt METAR EHLW 201311Z AUTO 35016KT 310V010 9999 FEW023 SCT026 BKN033 09/05 Q1020 BLU
14:55
V
9 °C 10 km+ 3.200 ft 360° 360° 11 kt METAR EHLW 201255Z AUTO 36011KT 330V030 9999 FEW018 SCT023 BKN032 09/06 Q1020 WHT
14:25
M
10 °C 10 km+ 1.800 ft 350° 350° 14 kt METAR EHLW 201225Z AUTO 35014KT 320V020 9999 BKN018 BKN022 BKN026 10/06 Q1020 WHT
14:06
M
10 °C 10 km+ 1.800 ft 340° 340° 13 kt METAR EHLW 201206Z AUTO 34013KT 300V010 9999 BKN018 BKN023 10/06 Q1020 WHT
13:55
M
10 °C 10 km+ 2.000 ft 330° 330° 12 kt METAR EHLW 201155Z AUTO 33012KT 290V010 9999 SCT016 BKN020 BKN024 10/06 Q1020 WHT
13:43
V
9 °C 10 km+ 4.600 ft 330° 330° 12 kt METAR EHLW 201143Z AUTO 33012KT 290V020 9999 FEW015CB SCT017 BKN046 09/06 Q1020 WHT
13:36
M
9 °C 10 km+ 3.000 ft 320° 320° 13 kt METAR EHLW 201136Z AUTO 32013KT 280V020 9999 FEW023 BKN030 09/06 Q1020 BLU
13:25
M
8 °C 10 km+ 2.900 ft 320° 320° 14 kt METAR EHLW 201125Z AUTO 32014KT 290V010 9999 FEW021 SCT026 BKN029 08/05 Q1020 BLU
13:05
I
9 °C 3,2 km 2.400 ft 320° 320° 14 kt METAR EHLW 201105Z AUTO 32014KT 260V360 3200 RA FEW014 SCT017 BKN024 09/06 Q1020 YLO
13:03
M
9 °C 10 km+ 2.700 ft 320° 320° 13 kt METAR EHLW 201103Z AUTO 32013KT 280V360 9999 FEW018 SCT024 BKN027 09/05 Q1020 WHT
12:59
V
10 °C 10 km+ 3.500 ft 320° 320° 14 kt METAR EHLW 201059Z AUTO 32014KT 280V360 9999 FEW020 SCT025 BKN035 10/06 Q1020 BLU
12:55
V
10 °C 10 km+ 5.200 ft 320° 320° 14 kt METAR EHLW 201055Z AUTO 32014KT 280V350 9999 SCT018 SCT025 BKN052 10/06 Q1020 WHT
12:30
M
10 °C 10 km+ 2.600 ft 320° 320° 14 kt METAR EHLW 201030Z AUTO 32014KT 280V010 9999 SCT016 BKN026 BKN035 10/06 Q1020 WHT
12:25
V
10 °C 10 km+ 3.100 ft 320° 320° 14 kt METAR EHLW 201025Z AUTO 32014KT 280V360 9999 FEW019 SCT027 BKN031 10/05 Q1020 BLU
11:55
M
9 °C 10 km+ 1.900 ft 310° 310° 16 kt METAR EHLW 200955Z AUTO 31016KT 270V360 9999 -RADZ SCT016 BKN019 OVC027 09/05 Q1020 WHT
11:25
M
9 °C 10 km+ 2.900 ft 320° 320° 17 kt METAR EHLW 200925Z AUTO 32017KT 280V360 9999 SCT017 BKN029 OVC037 09/05 Q1020 WHT
11:09
V
9 °C 10 km+ 3.600 ft 330° 330° 17 kt METAR EHLW 200909Z AUTO 33017KT 280V010 9999 FEW018 SCT032 BKN036 09/06 Q1020 BLU
11:07
M
8 °C 10 km+ 2.600 ft 330° 330° 17 kt METAR EHLW 200907Z AUTO 33017KT 290V010 9999 FEW017 SCT021 BKN026 08/04 Q1020 WHT
10:55
M
8 °C 10 km+ 1.700 ft 330° 330° 14 kt METAR EHLW 200855Z AUTO 33014KT 280V010 9999 BKN017 OVC020 08/05 Q1020 REDZ WHT
10:39
V
8 °C 10 km+ 3.100 ft 320° 320° 14 kt METAR EHLW 200839Z AUTO 32014KT 280V010 9999 SCT019 SCT026 BKN031 08/05 Q1020 WHT
10:34
M
7 °C 10 km+ 3.000 ft 320° 320° 16 kt METAR EHLW 200834Z AUTO 32016KT 280V010 9999 RA SCT027 BKN030 BKN035 07/05 Q1020 BLU
10:25
V
7 °C 10 km+ 3.100 ft 330° 330° 16 kt METAR EHLW 200825Z AUTO 33016KT 300V010 9999 -RA FEW024 BKN031 OVC036 07/05 Q1019 BLU
10:16
M
7 °C 10 km+ 2.900 ft 330° 330° 17 kt METAR EHLW 200816Z AUTO 33017KT 300V010 9999 -RA FEW022 SCT025 BKN029 07/04 Q1019 BLU
10:01
V
8 °C 10 km+ 5.300 ft 330° 330° 14 kt METAR EHLW 200801Z AUTO 33014KT 290V010 9999 SCT019 SCT035 BKN053 08/06 Q1019 WHT
09:59
V
7 °C 10 km+ 7.300 ft 330° 330° 14 kt METAR EHLW 200759Z AUTO 33014KT 290V010 9999 FEW018 SCT036 BKN073 07/05 Q1019 BLU
09:55
V
7 °C 10 km+ 3.200 ft 330° 330° 14 kt METAR EHLW 200755Z AUTO 33014KT 300V020 9999 FEW013 FEW015CB SCT016 BKN032 07/04 Q1019 REUP WHT
09:33
V
6 °C 10 km+ 3.200 ft 330° 330° 8 kt METAR EHLW 200733Z AUTO 33008KT 280V360 9999 -RA FEW019 SCT023 BKN032 06/04 Q1019 WHT
09:30
V
5 °C 10 km+ 3.100 ft 340° 340° 11 kt METAR EHLW 200730Z AUTO 34011KT 300V360 9999 -SHRA FEW015CB SCT025 BKN031 05/04 Q1019 BLU
09:25
M
5 °C 5 km 1.700 ft 350° 350° 15 kt METAR EHLW 200725Z AUTO 35015KT 300V020 5000 RA FEW015CB BKN017 BKN022 OVC027 05/03 Q1019 WHT
09:08
M
7 °C 10 km+ 2.700 ft 340° 340° 16 kt METAR EHLW 200708Z AUTO 34016KT 290V020 9999 FEW015CB SCT019 BKN027 OVC033 07/04 Q1019 WHT
08:57
V
7 °C 10 km+ 3.900 ft 330° 330° 15 kt METAR EHLW 200657Z AUTO 33015KT 290V020 9999 FEW015CB BKN039 BKN045 07/04 Q1019 BLU
08:25
V
7 °C 10 km+ 5.500 ft 350° 350° 14 kt METAR EHLW 200625Z AUTO 35014KT 310V010 9999 FEW022 SCT025 BKN055 07/03 Q1019 BLU
08:15
V
7 °C 10 km+ 8.200 ft 350° 350° 13 kt METAR EHLW 200615Z AUTO 35013KT 310V020 9999 SCT022 SCT050 OVC082 07/03 Q1018 WHT
07:55
V
6 °C 10 km+ 7.700 ft 340° 340° 19 kt METAR EHLW 200555Z AUTO 34019KT 300V010 9999 -RA FEW031 SCT049 BKN077 06/02 Q1018 BLU
Eine Änderung melden